Latest Weather Observations for St Kilda Harbour RMYS

IDV60801

Issued at 5:02 am EST Saturday 29 August 2015 (issued every 30 minutes, with the page automatically refreshed every 10 minutes)

About weather observations | Map of weather stations | Latest weather observations for VIC | Other Formats
Station Details ID: 086220 Name: ST KILDA HARBOUR - RMYS Lat: -37.86 Lon: 144.96 Height: 6.4 m
Data from the previous 72 hours. | See also: Recent months for locations in Victoria
Date/Time
EST
Temp
°C
App
Temp
°C
Dew
Point
Rel
Hum
%
Delta-T
°C
Wind Press
QNH
hPa
Press
MSL
hPa
Rain
since 9 am
mm
Dir
 
Spd
km/h
Gust
km/h
Spd
kts
Gust
kts
29/05:00am - - - - - S 28 35 15 19 - - -
29/04:30am - - - - - S 28 35 15 19 - - -
29/04:00am - - - - - S 33 44 18 24 - - -
29/03:30am - - - - - SE 11 37 6 20 - - -
29/03:00am - - - - - ESE 6 11 3 6 - - -
29/02:30am - - - - - SE 13 17 7 9 - - -
29/02:00am - - - - - S 24 35 13 19 - - -
29/01:35am - - - - - S 30 52 16 28 - - -
29/01:30am - - - - - S 28 35 15 19 - - -
29/01:00am - - - - - SSW 17 22 9 12 - - -
29/12:30am - - - - - WSW 28 33 15 18 - - -
29/12:00am - - - - - WSW 26 32 14 17 - - -
 
Date/Time
EST
Temp
°C
App
Temp
°C
Dew
Point
Rel
Hum
%
Delta-T
°C
Wind Press
QNH
hPa
Press
MSL
hPa
Rain
since 9 am
mm
Dir
 
Spd
km/h
Gust
km/h
Spd
kts
Gust
kts
28/11:30pm - - - - - W 20 28 11 15 - - -
28/11:00pm - - - - - SSW 20 22 11 12 - - -
28/10:30pm - - - - - SSW 30 37 16 20 - - -
28/10:00pm - - - - - SSW 30 35 16 19 - - -
28/09:30pm - - - - - SW 33 41 18 22 - - -
28/09:00pm - - - - - SW 30 37 16 20 - - -
28/08:30pm - - - - - SSW 30 33 16 18 - - -
28/08:00pm - - - - - SSW 28 33 15 18 - - -
28/07:30pm - - - - - SSW 26 32 14 17 - - -
28/07:00pm - - - - - SSW 28 32 15 17 - - -
28/06:30pm - - - - - SSW 30 35 16 19 - - -
28/06:00pm - - - - - SSW 28 32 15 17 - - -
28/05:30pm - - - - - SSW 30 33 16 18 - - -
28/05:00pm - - - - - SSW 32 35 17 19 - - -
28/04:30pm - - - - - SSW 35 43 19 23 - - -
28/04:00pm - - - - - SSW 39 44 21 24 - - -
28/03:30pm - - - - - SSW 37 43 20 23 - - -
28/03:00pm - - - - - SSW 35 44 19 24 - - -
28/02:30pm - - - - - SSW 33 37 18 20 - - -
28/02:00pm - - - - - SSW 20 24 11 13 - - -
28/01:30pm - - - - - SW 24 28 13 15 - - -
28/01:00pm - - - - - SSW 19 33 10 18 - - -
28/12:30pm - - - - - SSW 24 32 13 17 - - -
28/12:00pm - - - - - SW 19 22 10 12 - - -
28/11:30am - - - - - SSW 24 26 13 14 - - -
28/11:00am - - - - - SW 22 26 12 14 - - -
28/10:30am - - - - - WSW 22 24 12 13 - - -
28/10:00am - - - - - WSW 20 26 11 14 - - -
28/09:30am - - - - - SSW 22 26 12 14 - - -
28/09:00am - - - - - SW 28 37 15 20 - - -
28/08:30am - - - - - WSW 26 32 14 17 - - -
28/08:00am - - - - - WSW 24 30 13 16 - - -
28/07:30am - - - - - SW 24 32 13 17 - - -
28/07:00am - - - - - WSW 32 35 17 19 - - -
28/06:30am - - - - - WSW 30 33 16 18 - - -
28/06:00am - - - - - WSW 32 35 17 19 - - -
28/05:30am - - - - - WSW 24 30 13 16 - - -
28/05:00am - - - - - WSW 28 32 15 17 - - -
28/04:30am - - - - - SW 30 35 16 19 - - -
28/04:00am - - - - - SW 28 32 15 17 - - -
28/03:30am - - - - - SW 24 30 13 16 - - -
28/03:00am - - - - - SSW 26 32 14 17 - - -
28/02:30am - - - - - SSW 26 32 14 17 - - -
28/02:00am - - - - - SSW 24 28 13 15 - - -
28/01:30am - - - - - SSW 28 32 15 17 - - -
28/01:00am - - - - - SSW 26 32 14 17 - - -
28/12:30am - - - - - SSW 32 37 17 20 - - -
28/12:00am - - - - - SSW 26 32 14 17 - - -
 
Date/Time
EST
Temp
°C
App
Temp
°C
Dew
Point
Rel
Hum
%
Delta-T
°C
Wind Press
QNH
hPa
Press
MSL
hPa
Rain
since 9 am
mm
Dir
 
Spd
km/h
Gust
km/h
Spd
kts
Gust
kts
27/11:30pm - - - - - SSW 28 33 15 18 - - -
27/11:00pm - - - - - SSW 26 32 14 17 - - -
27/10:30pm - - - - - S 30 37 16 20 - - -
27/10:00pm - - - - - S 35 43 19 23 - - -
27/09:30pm - - - - - S 30 35 16 19 - - -
27/09:00pm - - - - - S 30 35 16 19 - - -
27/08:30pm - - - - - S 28 33 15 18 - - -
27/08:00pm - - - - - SSW 32 37 17 20 - - -
27/07:30pm - - - - - SSW 20 24 11 13 - - -
27/07:00pm - - - - - S 22 26 12 14 - - -
27/06:30pm - - - - - SSW 26 32 14 17 - - -
27/06:00pm - - - - - SSW 26 32 14 17 - - -
27/05:30pm - - - - - SSW 30 35 16 19 - - -
27/05:00pm - - - - - SSW 32 35 17 19 - - -
27/04:30pm - - - - - SSW 32 35 17 19 - - -
27/04:00pm - - - - - SW 26 30 14 16 - - -
27/03:30pm - - - - - SW 17 19 9 10 - - -
27/03:00pm - - - - - WSW 22 24 12 13 - - -
27/02:30pm - - - - - WSW 20 28 11 15 - - -
27/02:00pm - - - - - WSW 20 24 11 13 - - -
27/01:30pm - - - - - WSW 19 20 10 11 - - -
27/01:00pm - - - - - SW 11 13 6 7 - - -
27/12:30pm - - - - - WSW 13 15 7 8 - - -
27/12:00pm - - - - - W 11 13 6 7 - - -
27/11:30am - - - - - WSW 7 11 4 6 - - -
27/11:00am - - - - - WSW 9 13 5 7 - - -
27/10:30am - - - - - WNW 13 15 7 8 - - -
27/10:00am - - - - - WSW 20 22 11 12 - - -
27/09:30am - - - - - WSW 20 24 11 13 - - -
27/09:00am - - - - - WSW 19 22 10 12 - - -
27/08:30am - - - - - WSW 15 20 8 11 - - -
27/08:00am - - - - - SW 9 11 5 6 - - -
27/07:30am - - - - - WSW 6 7 3 4 - - -
27/07:00am - - - - - WSW 15 17 8 9 - - -
27/06:30am - - - - - WSW 11 15 6 8 - - -
27/06:00am - - - - - W 7 9 4 5 - - -
27/05:30am - - - - - WNW 6 9 3 5 - - -
27/05:00am - - - - - W 7 7 4 4 - - -
27/04:30am - - - - - NW 7 9 4 5 - - -
27/04:00am - - - - - W 4 4 2 2 - - -
27/03:30am - - - - - NW 4 6 2 3 - - -
27/03:00am - - - - - WNW 9 11 5 6 - - -
27/02:30am - - - - - WNW 9 11 5 6 - - -
27/02:00am - - - - - WNW 4 6 2 3 - - -
27/01:30am - - - - - WSW 6 6 3 3 - - -
27/01:00am - - - - - WNW 11 15 6 8 - - -
27/12:30am - - - - - NW 11 13 6 7 - - -
27/12:00am - - - - - WNW 6 7 3 4 - - -
 
Date/Time
EST
Temp
°C
App
Temp
°C
Dew
Point
Rel
Hum
%
Delta-T
°C
Wind Press
QNH
hPa
Press
MSL
hPa
Rain
since 9 am
mm
Dir
 
Spd
km/h
Gust
km/h
Spd
kts
Gust
kts
26/11:30pm - - - - - WNW 7 9 4 5 - - -
26/11:00pm - - - - - WNW 6 7 3 4 - - -
26/10:30pm - - - - - WNW 7 9 4 5 - - -
26/10:00pm - - - - - WNW 9 11 5 6 - - -
26/09:30pm - - - - - W 7 7 4 4 - - -
26/09:00pm - - - - - WNW 6 7 3 4 - - -
26/08:30pm - - - - - WSW 4 6 2 3 - - -
26/08:00pm - - - - - W 6 7 3 4 - - -
26/07:30pm - - - - - SSW 7 9 4 5 - - -
26/07:00pm - - - - - S 9 11 5 6 - - -
26/06:30pm - - - - - SSE 11 13 6 7 - - -
26/06:00pm - - - - - SSE 13 15 7 8 - - -
26/05:30pm - - - - - SE 9 13 5 7 - - -
26/05:00pm - - - - - SSE 7 9 4 5 - - -
26/04:30pm - - - - - SSW 9 11 5 6 - - -
26/04:00pm - - - - - SSW 7 9 4 5 - - -
26/03:30pm - - - - - SSW 9 11 5 6 - - -
26/03:00pm - - - - - SSW 11 13 6 7 - - -
26/02:30pm - - - - - SW 11 13 6 7 - - -
26/02:00pm - - - - - SSW 11 13 6 7 - - -
26/01:30pm - - - - - SSW 13 13 7 7 - - -
26/01:00pm - - - - - S 13 13 7 7 - - -
26/12:30pm - - - - - S 13 13 7 7 - - -
26/12:00pm - - - - - S 11 13 6 7 - - -
26/11:30am - - - - - SSW 7 9 4 5 - - -
26/11:00am - - - - - SSW 7 9 4 5 - - -
26/10:30am - - - - - SW 7 7 4 4 - - -
26/10:00am - - - - - WSW 7 7 4 4 - - -
26/09:30am - - - - - WSW 2 4 1 2 - - -
26/09:00am - - - - - SW 2 4 1 2 - - -
26/08:30am - - - - - S 2 4 1 2 - - -
26/08:00am - - - - - ENE 2 4 1 2 - - -
26/07:30am - - - - - NE 6 11 3 6 - - -
26/07:00am - - - - - ENE 7 13 4 7 - - -
26/06:30am - - - - - E 9 15 5 8 - - -
26/06:00am - - - - - E 9 15 5 8 - - -
26/05:30am - - - - - ESE 13 17 7 9 - - -

Other Formats:

Comma delimited format used in spreadsheet applications
http://www.bom.gov.au/fwo/IDV60801/IDV60801.95864.axf

JavaScript Object Notation format (JSON) in row-major order
http://www.bom.gov.au/fwo/IDV60801/IDV60801.95864.json